DGPHX EDML-ZZZZ

Flight info

Callsign DGPHX
Flight time N/A
Altitude 5000
Route /
Aircraft DA62/L-V/N

Departure

Time 2026-04-15 12:51
Airport Landshut Airfield (EDML)

Arrival

Time N/A
Airport ZZZZ
Time Latitude Longitude Altitude Speed Heading
2026-04-15 12:48 48.51341 12.03623 1319 ft 0 kts 339°
2026-04-15 12:49 48.51344 12.03626 1319 ft 3 kts 81°
2026-04-15 12:49 48.51359 12.03755 1319 ft 24 kts 68°
2026-04-15 12:50 48.51352 12.03855 1318 ft 2 kts 160°
2026-04-15 12:50 48.51281 12.03757 1318 ft 39 kts 246°
2026-04-15 12:50 48.51094 12.03123 1357 ft 85 kts 246°
2026-04-15 12:50 48.50838 12.02275 1549 ft 104 kts 244°
2026-04-15 12:51 48.50474 12.01134 1595 ft 132 kts 244°
2026-04-15 12:51 48.50088 11.99818 1787 ft 140 kts 253°
2026-04-15 12:51 48.49793 11.98433 2098 ft 137 kts 252°
2026-04-15 12:51 48.49506 11.97076 2276 ft 146 kts 252°
2026-04-15 12:52 48.49184 11.95520 2271 ft 162 kts 253°
2026-04-15 12:52 48.48847 11.93859 2276 ft 169 kts 253°
2026-04-15 12:52 48.48500 11.92129 2277 ft 174 kts 253°
2026-04-15 12:52 48.48152 11.90361 2280 ft 178 kts 253°
2026-04-15 12:53 48.47797 11.88541 2281 ft 179 kts 254°
2026-04-15 12:53 48.47454 11.86756 2279 ft 179 kts 254°
2026-04-15 12:53 48.47122 11.84997 2277 ft 171 kts 254°
2026-04-15 12:53 48.46805 11.83307 2274 ft 164 kts 254°
2026-04-15 12:54 48.46502 11.81678 2274 ft 160 kts 255°
2026-04-15 12:54 48.46027 11.80295 2262 ft 128 kts 218°
2026-04-15 12:54 48.45251 11.80076 2274 ft 112 kts 177°
2026-04-15 12:54 48.44498 11.80150 2275 ft 108 kts 173°
2026-04-15 12:55 48.43740 11.80327 2278 ft 113 kts 172°
2026-04-15 12:55 48.42942 11.80508 2289 ft 119 kts 172°
2026-04-15 12:55 48.42129 11.80758 2289 ft 122 kts 167°
2026-04-15 12:55 48.41287 11.81063 2288 ft 126 kts 167°
2026-04-15 12:56 48.40421 11.81375 2282 ft 129 kts 167°
2026-04-15 12:56 48.39549 11.81693 2288 ft 130 kts 167°
2026-04-15 12:56 48.38666 11.82014 2287 ft 132 kts 167°
2026-04-15 12:56 48.37764 11.82237 2275 ft 132 kts 189°
2026-04-15 12:57 48.36985 11.81574 2277 ft 130 kts 227°
2026-04-15 12:57 48.36414 11.80510 2280 ft 131 kts 232°
2026-04-15 12:57 48.35847 11.79429 2280 ft 132 kts 232°
2026-04-15 12:57 48.35230 11.78403 2273 ft 133 kts 212°
2026-04-15 12:58 48.34331 11.78111 2275 ft 134 kts 179°
2026-04-15 12:58 48.33405 11.78298 2274 ft 135 kts 168°
2026-04-15 12:58 48.32504 11.78691 2273 ft 135 kts 161°
2026-04-15 12:58 48.31668 11.79326 2275 ft 136 kts 148°
2026-04-15 12:59 48.29907 11.79916 2276 ft 133 kts 177°
2026-04-15 12:59 48.28984 11.80006 2275 ft 133 kts 177°
2026-04-15 12:59 48.28063 11.80092 2275 ft 132 kts 177°
2026-04-15 13:00 48.27140 11.80177 2277 ft 133 kts 177°
2026-04-15 13:00 48.26212 11.80263 2276 ft 133 kts 177°
2026-04-15 13:00 48.25286 11.80348 2276 ft 133 kts 177°
2026-04-15 13:00 48.24362 11.80435 2277 ft 133 kts 177°
2026-04-15 13:01 48.23437 11.80520 2277 ft 133 kts 177°
2026-04-15 13:01 48.22512 11.80605 2277 ft 133 kts 177°
2026-04-15 13:01 48.21721 11.81022 2260 ft 108 kts 129°
2026-04-15 13:01 48.21687 11.81996 2273 ft 93 kts 49°
2026-04-15 13:02 48.22380 11.82222 2294 ft 124 kts 349°
2026-04-15 13:02 48.23314 11.81895 2283 ft 147 kts 345°
2026-04-15 13:02 48.24336 11.81514 2283 ft 155 kts 345°
2026-04-15 13:02 48.25391 11.81118 2289 ft 157 kts 345°
2026-04-15 13:03 48.26478 11.80873 2292 ft 159 kts 356°
2026-04-15 13:03 48.27589 11.80758 2287 ft 161 kts 355°
2026-04-15 13:03 48.28697 11.80785 2272 ft 156 kts 17°
2026-04-15 13:03 48.29415 11.81777 2270 ft 133 kts 70°
2026-04-15 13:04 48.29276 11.82884 2268 ft 100 kts 140°
2026-04-15 13:04 48.28666 11.82905 2278 ft 93 kts 223°
2026-04-15 13:04 48.28596 11.82037 2302 ft 94 kts 302°
2026-04-15 13:04 48.29153 11.81430 2288 ft 106 kts 335°
2026-04-15 13:05 48.29857 11.81005 2285 ft 114 kts 337°
2026-04-15 13:05 48.30633 11.80538 2282 ft 121 kts 337°
2026-04-15 13:05 48.31415 11.80066 2290 ft 122 kts 337°
2026-04-15 13:05 48.32214 11.79582 2284 ft 129 kts 337°
2026-04-15 13:06 48.33061 11.79067 2285 ft 133 kts 337°
2026-04-15 13:06 48.33932 11.78550 2280 ft 136 kts 342°
2026-04-15 13:06 48.34882 11.78451 2276 ft 140 kts 11°
2026-04-15 13:06 48.35783 11.79018 2283 ft 146 kts 28°
2026-04-15 13:07 48.36728 11.79797 2295 ft 163 kts 28°
2026-04-15 13:07 48.37744 11.80640 2290 ft 170 kts 28°
2026-04-15 13:07 48.38788 11.81504 2284 ft 172 kts 28°
2026-04-15 13:07 48.39892 11.82180 2277 ft 173 kts
2026-04-15 13:08 48.40693 11.82014 2270 ft 173 kts 342°
2026-04-15 13:08 48.41810 11.81397 2275 ft 173 kts 338°
2026-04-15 13:08 48.42959 11.80858 2276 ft 173 kts 345°
2026-04-15 13:08 48.44149 11.80433 2274 ft 173 kts 346°
2026-04-15 13:09 48.45324 11.80022 2273 ft 173 kts 347°
2026-04-15 13:09 48.46405 11.80164 2263 ft 134 kts 30°
2026-04-15 13:09 48.46872 11.81162 2291 ft 115 kts 66°
2026-04-15 13:09 48.47228 11.82331 2290 ft 137 kts 65°
2026-04-15 13:10 48.47655 11.83753 2295 ft 159 kts 65°
2026-04-15 13:10 48.48129 11.85330 2286 ft 170 kts 65°
2026-04-15 13:10 48.48514 11.87049 2282 ft 177 kts 80°
2026-04-15 13:10 48.48657 11.88910 2286 ft 180 kts 84°
2026-04-15 13:11 48.48781 11.90802 2285 ft 182 kts 84°
2026-04-15 13:11 48.49022 11.92681 2291 ft 184 kts 73°
2026-04-15 13:11 48.49320 11.94561 2283 ft 184 kts 82°
2026-04-15 13:11 48.49443 11.96461 2274 ft 185 kts 84°
2026-04-15 13:12 48.49694 11.98206 2075 ft 146 kts 69°
2026-04-15 13:12 48.50039 11.99481 1872 ft 121 kts 66°
2026-04-15 13:12 48.50351 12.00573 1722 ft 108 kts 66°
2026-04-15 13:12 48.50627 12.01536 1592 ft 92 kts 66°
2026-04-15 13:13 48.50886 12.02418 1409 ft 89 kts 67°
2026-04-15 13:13 48.51106 12.03159 1316 ft 57 kts 64°
2026-04-15 13:13 48.51208 12.03360 1318 ft 20 kts 24°
2026-04-15 13:13 48.51312 12.03629 1320 ft 19 kts 21°
2026-04-15 13:14 48.51341 12.03694 1319 ft 0 kts 127°
2026-04-15 13:14 48.51340 12.03696 1319 ft 0 kts 147°